Atlantis, Florida
Current Conditions -  °F | °C
As of 7:53 AM on Friday 24 Oct 2014 (Local Time) from KPBI Reporting Station
Broken Clouds Broken Clouds  
Wind Chill: 77°   Ceiling: 3700
Heat Index: 79°   Visibility: 10mi
Dew Point: 66°   Wind: 13mph
Humidity: 69%   Direction: 50°NE
Pressure: 29.87"   Gusts: 22mph
Location:  26.5758°N, 80.0835°W
Report Text: KPBI 241153Z 05011G19KT 10SM SCT028 BKN037 BKN220 25/19 A2987 RMK AO2 SLP115 T02500189 10250 20250 53005
Loading
Personal Weather Stations






























Interactive Weather Map
Tropical Storm Tracking
New forecast layout! Learn more

10-Day Weather Forecast

Advertisements
Track Severe Weather on mobile